Irricana, Canada
Current Conditions -  °F | °C
As of 11:28 AM on Thursday 30 Oct 2014 (Local Time) from CYYC Reporting Station
Moderate Fog Moderate Fog  
Wind Chill: 16°   Ceiling: 200
Heat Index: 27°   Visibility: 0.25mi
Dew Point: 27°   Wind: 12mph
Humidity: 100%   Direction: 150°SSE
Pressure: 30.17"   Gusts: NA
Location:  51.32°N, 113.62°W
Report Text: CYYC 301728Z 15010KT 1/4SM R17R/3000VP6000FT/U R17L/2600V4000FT/U R29/2400FT/N FZFG VV002 M03/M03 A3017 RMK FG8 CIG VRB 1-4 SLP270
Loading
Personal Weather Stations






























Interactive Weather Map
Tropical Storm Tracking
New forecast layout! Learn more

10-Day Weather Forecast

Advertisements
Track Severe Weather on mobile